Time;durP1;ratioP1;P1;durP2;ratioP2;P2;SDS_P1;SDS_P2;PMS_P1;PMS_P2;Temp;Humidity;BMP_temperature;BMP_pressure;BME280_temperature;BME280_humidity;BME280_pressure;Samples;Min_cycle;Max_cycle;Signal;HPM_P1;HPM_P2
2022/01/19 00:02:17;;;;;;;35.15;18.95;;;;;;;0.50;100.00;103101.41;5242879;28;20041;-68
2022/01/19 00:04:49;;;;;;;39.10;19.60;;;;;;;0.47;100.00;103094.41;5249500;28;20043;-68
2022/01/19 00:07:20;;;;;;;34.60;18.23;;;;;;;0.43;100.00;103082.16;5244915;28;20391;-68
2022/01/19 00:09:51;;;;;;;41.47;20.08;;;;;;;0.41;100.00;103078.66;5251903;28;20056;-68
2022/01/19 00:12:22;;;;;;;39.47;20.02;;;;;;;0.42;100.00;103076.91;5243463;28;20358;-68
2022/01/19 00:14:54;;;;;;;37.17;20.15;;;;;;;0.37;100.00;103087.41;5246768;28;20033;-68
2022/01/19 00:17:25;;;;;;;35.00;19.63;;;;;;;0.32;100.00;103094.38;5241289;28;20061;-67
2022/01/19 00:19:56;;;;;;;36.88;19.00;;;;;;;0.30;100.00;103101.38;5240270;28;20036;-67
2022/01/19 00:22:27;;;;;;;43.97;20.10;;;;;;;0.24;100.00;103096.13;5242105;28;20056;-67
2022/01/19 00:25:00;;;;;;;34.20;19.52;;;;;;;0.25;100.00;103092.59;5238720;28;20376;-67
2022/01/19 00:27:31;;;;;;;37.17;20.55;;;;;;;0.21;100.00;103080.34;5255598;28;20098;-67
2022/01/19 00:30:03;;;;;;;43.53;20.88;;;;;;;0.23;100.00;103054.97;5239821;28;20037;-67
2022/01/19 00:32:35;;;;;;;45.28;20.90;;;;;;;0.10;100.00;103040.97;5240977;28;20059;-67
2022/01/19 00:35:09;;;;;;;39.00;21.08;;;;;;;0.14;100.00;103022.59;5240312;28;20123;-67
2022/01/19 00:37:41;;;;;;;44.67;22.48;;;;;;;0.12;100.00;103007.72;5242443;28;20145;-67
2022/01/19 00:40:14;;;;;;;42.10;22.02;;;;;;;0.10;100.00;102997.22;5238930;28;20061;-67
2022/01/19 00:42:46;;;;;;;51.00;23.90;;;;;;;0.12;100.00;102986.72;5238151;28;20021;-67
2022/01/19 00:45:18;;;;;;;55.97;24.15;;;;;;;0.10;100.00;102978.84;5238683;28;20026;-67
2022/01/19 00:47:49;;;;;;;64.13;27.00;;;;;;;0.08;100.00;102993.72;5239978;28;20029;-67
2022/01/19 00:50:27;;;;;;;82.20;26.02;;;;;;;0.07;100.00;103005.06;5244784;28;20842;-67
2022/01/19 00:52:58;;;;;;;78.90;26.98;;;;;;;0.05;100.00;103006.81;5243141;28;20035;-67
2022/01/19 00:55:29;;;;;;;58.50;26.85;;;;;;;0.01;100.00;103007.69;5247175;28;20024;-67
2022/01/19 00:58:01;;;;;;;111.72;28.33;;;;;;;0.09;100.00;103012.94;5249387;28;20036;-67
2022/01/19 01:00:32;;;;;;;78.35;26.63;;;;;;;0.03;100.00;103012.94;5248482;28;20068;-68
2022/01/19 01:03:04;;;;;;;64.25;25.73;;;;;;;0.05;100.00;103030.44;5247247;28;20040;-67
2022/01/19 01:05:36;;;;;;;91.88;26.42;;;;;;;0.04;100.00;103018.22;5249560;28;20031;-67
2022/01/19 01:08:07;;;;;;;101.18;25.10;;;;;;;-0.03;100.00;103013.81;5248896;28;20461;-68
2022/01/19 01:10:42;;;;;;;90.80;25.52;;;;;;;0.01;100.00;103007.69;5249111;28;20053;-67
2022/01/19 01:13:29;;;;;;;85.50;23.98;;;;;;;0.01;100.00;102993.69;5242262;28;20029;-67
2022/01/19 01:16:05;;;;;;;63.35;23.70;;;;;;;-0.07;100.00;102985.81;5243916;28;20505;-67
2022/01/19 01:18:36;;;;;;;44.63;22.02;;;;;;;-0.04;100.00;102970.94;5243285;28;20044;-67
2022/01/19 01:21:08;;;;;;;57.78;24.67;;;;;;;-0.08;100.00;102963.06;5244720;28;20036;-68
2022/01/19 01:23:39;;;;;;;46.92;22.50;;;;;;;-0.07;100.00;102962.19;5242277;28;20029;-67
2022/01/19 01:26:11;;;;;;;57.47;22.58;;;;;;;-0.06;100.00;102956.06;5246649;28;20647;-67
2022/01/19 01:28:42;;;;;;;91.57;24.58;;;;;;;-0.11;100.00;102935.06;5246472;28;20025;-68
2022/01/19 01:31:14;;;;;;;73.75;22.60;;;;;;;-0.05;100.00;102937.69;5249347;28;20601;-68
2022/01/19 01:33:45;;;;;;;65.65;22.30;;;;;;;-0.05;100.00;102926.34;5247689;28;20048;-68
2022/01/19 01:36:16;;;;;;;68.45;21.52;;;;;;;-0.18;100.00;102900.94;5241982;28;20231;-68
2022/01/19 01:38:48;;;;;;;50.05;21.48;;;;;;;-0.07;100.00;102894.84;5243287;28;20037;-68
2022/01/19 01:41:19;;;;;;;49.83;21.77;;;;;;;-0.12;100.00;102885.22;5245578;28;20086;-68
2022/01/19 01:43:50;;;;;;;43.60;23.42;;;;;;;-0.20;100.00;102879.94;5240177;28;20506;-67
2022/01/19 01:49:27;;;;;;;42.05;22.83;;;;;;;-0.26;100.00;102875.56;5245380;28;20506;-68
2022/01/19 01:54:48;;;;;;;40.45;23.23;;;;;;;-0.35;100.00;102893.03;5248348;28;20407;-68
2022/01/19 01:57:20;;;;;;;40.63;22.70;;;;;;;-0.35;100.00;102886.03;5250339;28;20033;-68
2022/01/19 01:59:51;;;;;;;43.40;22.90;;;;;;;-0.37;100.00;102895.66;5248967;28;20060;-67
2022/01/19 02:02:23;;;;;;;46.13;24.10;;;;;;;-0.43;100.00;102896.50;5242211;28;20060;-68
2022/01/19 02:04:54;;;;;;;44.03;24.30;;;;;;;-0.45;100.00;102885.16;5242119;28;20039;-68
2022/01/19 02:07:32;;;;;;;47.83;24.73;;;;;;;-0.50;100.00;102872.91;5238473;28;20028;-68
2022/01/19 02:10:06;;;;;;;54.08;26.70;;;;;;;-0.55;100.00;102869.41;5241785;28;20049;-68
2022/01/19 02:23:58;;;;;;;45.90;24.27;;;;;;;-0.61;100.00;102850.16;5243046;28;20037;-68
2022/01/19 02:36:35;;;;;;;51.60;25.17;;;;;;;-0.69;100.00;102828.31;5240620;28;20041;-68
2022/01/19 02:40:41;;;;;;;47.35;23.83;;;;;;;-0.74;100.00;102780.22;5247467;28;20036;-68
2022/01/19 02:43:20;;;;;;;52.10;23.77;;;;;;;-0.88;100.00;102776.69;5241479;28;20386;-68
2022/01/19 02:51:31;;;;;;;43.63;23.05;;;;;;;-0.83;100.00;102756.63;5250702;28;20029;-68
2022/01/19 02:54:03;;;;;;;41.92;22.90;;;;;;;-0.89;100.00;102761.84;5247746;28;20510;-68
2022/01/19 02:56:38;;;;;;;44.53;22.58;;;;;;;-1.02;100.00;102761.84;5241186;28;20029;-68
2022/01/19 02:59:24;;;;;;;42.38;21.73;;;;;;;-0.97;100.00;102774.06;5240791;28;20623;-68
2022/01/19 03:10:23;;;;;;;48.90;25.48;;;;;;;-1.07;100.00;102744.38;5245280;28;20045;-68
2022/01/19 03:12:54;;;;;;;51.47;25.38;;;;;;;-1.10;100.00;102736.47;5243170;28;20037;-68
2022/01/19 03:15:27;;;;;;;46.80;25.25;;;;;;;-1.07;100.00;102726.88;5246645;28;20040;-68
2022/01/19 03:18:00;;;;;;;60.00;26.60;;;;;;;-1.06;100.00;102725.13;5243612;28;20060;-68
2022/01/19 03:20:32;;;;;;;56.92;26.92;;;;;;;-1.12;100.00;102720.75;5242220;28;20030;-68
2022/01/19 03:23:12;;;;;;;50.17;25.45;;;;;;;-1.13;100.00;102728.59;5246825;28;20037;-68
2022/01/19 03:25:43;;;;;;;51.33;26.35;;;;;;;-1.14;100.00;102713.78;5247537;28;20041;-68
2022/01/19 03:28:15;;;;;;;59.70;27.25;;;;;;;-1.17;100.00;102709.38;5242956;28;21058;-68
2022/01/19 03:30:47;;;;;;;56.28;26.88;;;;;;;-1.14;100.00;102711.16;5242305;28;20458;-68
2022/01/19 03:33:18;;;;;;;68.18;29.08;;;;;;;-1.21;100.00;102702.41;5242455;28;20107;-68
2022/01/19 03:35:51;;;;;;;66.90;28.42;;;;;;;-1.24;100.00;102695.41;5243635;28;20036;-68
2022/01/19 03:38:22;;;;;;;63.95;28.27;;;;;;;-1.22;100.00;102698.03;5242998;28;20486;-68
2022/01/19 03:40:53;;;;;;;64.47;28.40;;;;;;;-1.17;100.00;102684.94;5248476;28;20063;-68
2022/01/19 03:43:25;;;;;;;62.08;27.75;;;;;;;-1.24;100.00;102684.94;5243825;28;20608;-68
2022/01/19 03:45:59;;;;;;;58.45;28.30;;;;;;;-1.19;100.00;102682.31;5249718;28;20028;-68
2022/01/19 03:48:45;;;;;;;59.55;28.20;;;;;;;-1.23;100.00;102685.81;5248923;28;20191;-68
2022/01/19 03:51:17;;;;;;;62.17;28.10;;;;;;;-1.17;100.00;102669.22;5249517;28;20025;-68
2022/01/19 03:53:49;;;;;;;55.60;27.83;;;;;;;-1.14;100.00;102662.25;5247667;28;20025;-68
2022/01/19 03:56:20;;;;;;;72.93;31.40;;;;;;;-1.15;100.00;102649.16;5248441;28;20115;-68
2022/01/19 03:58:51;;;;;;;70.72;30.50;;;;;;;-1.11;100.00;102646.56;5248287;28;20067;-68
2022/01/19 04:01:23;;;;;;;65.10;31.75;;;;;;;-1.05;100.00;102640.47;5246647;28;20104;-68
2022/01/19 04:04:12;;;;;;;74.00;34.00;;;;;;;-1.03;100.00;102642.19;5250175;28;20029;-68
2022/01/19 04:06:57;;;;;;;64.40;31.83;;;;;;;-0.99;100.00;102640.44;5243564;28;20036;-68
2022/01/19 04:09:30;;;;;;;75.35;33.78;;;;;;;-1.01;100.00;102644.81;5243649;28;20838;-68
2022/01/19 04:12:02;;;;;;;85.90;34.30;;;;;;;-1.01;100.00;102637.81;5244694;28;20044;-68
2022/01/19 04:14:34;;;;;;;84.85;35.35;;;;;;;-0.96;100.00;102643.06;5244258;28;20040;-68
2022/01/19 04:17:10;;;;;;;78.97;33.78;;;;;;;-1.00;100.00;102636.06;5252654;28;20025;-68
2022/01/19 04:19:48;;;;;;;76.13;33.30;;;;;;;-1.05;100.00;102628.22;5251719;28;20021;-68
2022/01/19 04:22:20;;;;;;;76.30;33.97;;;;;;;-1.03;100.00;102623.00;5243828;28;20077;-68
2022/01/19 04:24:51;;;;;;;88.68;32.83;;;;;;;-1.11;100.00;102624.72;5248202;28;20980;-69
2022/01/19 04:30:10;;;;;;;81.72;34.63;;;;;;;-1.05;100.00;102630.84;5245404;28;20033;-68
2022/01/19 04:32:52;;;;;;;85.55;36.70;;;;;;;-1.02;100.00;102628.25;5248924;28;20055;-68
2022/01/19 04:35:26;;;;;;;94.68;37.55;;;;;;;-1.05;100.00;102630.84;5248289;28;20048;-68
2022/01/19 04:47:02;;;;;;;96.88;39.05;;;;;;;-0.98;100.00;102631.72;5247455;28;20060;-68
2022/01/19 05:03:42;;;;;;;147.13;48.25;;;;;;;-0.54;100.00;102617.69;5239642;28;20493;-68
2022/01/19 05:06:17;;;;;;;153.10;49.65;;;;;;;-0.51;100.00;102614.22;5243879;28;20037;-68
2022/01/19 05:14:09;;;;;;;127.13;46.17;;;;;;;-0.32;100.00;102608.06;5244623;28;20152;-68
2022/01/19 05:16:40;;;;;;;124.15;44.90;;;;;;;-0.30;100.00;102606.28;5241909;28;20025;-68
2022/01/19 05:19:12;;;;;;;139.05;46.90;;;;;;;-0.29;100.00;102612.41;5241635;28;20075;-68
2022/01/19 05:21:43;;;;;;;111.78;42.35;;;;;;;-0.26;100.00;102612.41;5243003;28;20045;-68
2022/01/19 05:24:15;;;;;;;132.13;44.03;;;;;;;-0.28;100.00;102616.78;5244591;28;20044;-68
2022/01/19 05:26:46;;;;;;;115.38;43.17;;;;;;;-0.26;100.00;102615.91;5245892;28;20067;-68
2022/01/19 05:29:18;;;;;;;114.93;42.95;;;;;;;-0.28;100.00;102615.03;5240439;28;20068;-68
2022/01/19 05:31:49;;;;;;;112.43;41.30;;;;;;;-0.25;100.00;102625.53;5243189;28;20021;-68
2022/01/19 05:34:20;;;;;;;114.47;42.75;;;;;;;-0.25;100.00;102625.53;5248734;28;20075;-68
2022/01/19 05:36:51;;;;;;;98.82;41.13;;;;;;;-0.13;100.00;102626.38;5242385;28;20036;-68
2022/01/19 05:39:23;;;;;;;106.07;40.95;;;;;;;-0.11;100.00;102622.00;5244210;28;20032;-68
2022/01/19 05:41:54;;;;;;;103.95;39.97;;;;;;;-0.10;100.00;102613.22;5246906;28;20487;-68
2022/01/19 05:44:25;;;;;;;109.57;41.13;;;;;;;-0.05;100.00;102603.59;5249293;28;20052;-68
2022/01/19 05:46:57;;;;;;;102.03;39.88;;;;;;;-0.02;100.00;102611.44;5246491;28;20633;-68
2022/01/19 05:49:28;;;;;;;90.13;38.17;;;;;;;0.04;100.00;102608.81;5252115;28;20032;-68
2022/01/19 05:51:59;;;;;;;97.93;41.83;;;;;;;0.04;100.00;102594.78;5243277;28;20712;-68
2022/01/19 05:54:30;;;;;;;109.55;45.85;;;;;;;0.14;100.00;102600.00;5249699;28;20380;-68
2022/01/19 05:57:02;;;;;;;101.28;43.75;;;;;;;0.18;100.00;102596.47;5246916;28;20029;-68
2022/01/19 05:59:34;;;;;;;100.60;42.38;;;;;;;0.14;100.00;102599.16;5240838;28;20037;-68
2022/01/19 06:02:05;;;;;;;86.43;36.85;;;;;;;0.25;100.00;102599.97;5243063;28;20028;-68
2022/01/19 06:04:36;;;;;;;93.95;37.75;;;;;;;0.26;100.00;102591.19;5241361;28;20029;-68
2022/01/19 06:07:08;;;;;;;93.78;39.38;;;;;;;0.25;100.00;102596.44;5242933;28;20128;-68
2022/01/19 06:12:16;;;;;;;87.93;36.78;;;;;;;0.32;100.00;102590.28;5241983;28;20045;-69
2022/01/19 06:14:48;;;;;;;82.80;35.90;;;;;;;0.35;100.00;102591.16;5241707;28;20040;-68
2022/01/19 06:17:19;;;;;;;80.75;37.22;;;;;;;0.44;100.00;102590.25;5243587;28;20033;-68
2022/01/19 06:19:50;;;;;;;83.47;36.75;;;;;;;0.44;100.00;102586.72;5241339;28;20304;-68
2022/01/19 06:22:21;;;;;;;78.55;35.28;;;;;;;0.48;100.00;102583.19;5242332;28;20037;-68
2022/01/19 06:24:53;;;;;;;77.22;35.13;;;;;;;0.49;100.00;102580.56;5247094;28;20041;-68
2022/01/19 06:27:24;;;;;;;84.18;34.63;;;;;;;0.49;100.00;102577.94;5249006;28;20029;-68
2022/01/19 06:29:55;;;;;;;69.35;33.85;;;;;;;0.58;100.00;102572.63;5242630;28;20487;-68
2022/01/19 06:32:26;;;;;;;77.03;35.17;;;;;;;0.55;100.00;102562.13;5248130;28;20029;-69
2022/01/19 06:34:58;;;;;;;76.57;35.22;;;;;;;0.60;100.00;102561.25;5250047;28;20032;-69
2022/01/19 06:37:29;;;;;;;69.15;33.13;;;;;;;0.56;100.00;102563.00;5248865;28;20143;-68
2022/01/19 06:40:03;;;;;;;71.68;33.30;;;;;;;0.64;100.00;102555.09;5248916;28;20106;-68
2022/01/19 06:42:34;;;;;;;78.68;35.28;;;;;;;0.65;100.00;102556.81;5250115;28;20498;-69
2022/01/19 06:45:06;;;;;;;72.10;32.92;;;;;;;0.63;100.00;102546.31;5250915;28;20060;-68
2022/01/19 06:47:38;;;;;;;70.75;34.75;;;;;;;0.61;100.00;102540.19;5251233;28;20025;-68
2022/01/19 06:50:12;;;;;;;67.85;33.28;;;;;;;0.67;100.00;102537.53;5253499;28;20116;-68
2022/01/19 06:52:43;;;;;;;67.22;32.97;;;;;;;0.75;100.00;102535.72;5251456;28;20033;-69
2022/01/19 06:55:16;;;;;;;68.07;33.58;;;;;;;0.70;100.00;102523.50;5254009;28;20029;-69
2022/01/19 06:57:48;;;;;;;70.93;32.85;;;;;;;0.76;100.00;102523.44;5253015;28;20024;-69
2022/01/19 07:00:19;;;;;;;68.32;33.60;;;;;;;0.81;100.00;102526.06;5250906;28;20036;-69
2022/01/19 07:02:53;;;;;;;65.45;33.10;;;;;;;0.81;100.00;102515.53;5251503;28;20032;-69
2022/01/19 07:05:24;;;;;;;64.35;31.52;;;;;;;0.84;100.00;102519.00;5250836;28;20033;-69
2022/01/19 07:07:57;;;;;;;67.20;32.20;;;;;;;0.85;100.00;102510.22;5253252;28;20142;-69
2022/01/19 07:10:31;;;;;;;66.55;32.47;;;;;;;0.85;100.00;102512.00;5252305;28;20564;-69
2022/01/19 07:13:05;;;;;;;61.50;30.27;;;;;;;0.91;100.00;102507.53;5254305;28;20112;-69
2022/01/19 07:15:37;;;;;;;73.65;32.88;;;;;;;0.88;100.00;102510.22;5251294;28;21991;-69
2022/01/19 07:18:08;;;;;;;66.38;32.20;;;;;;;0.95;100.00;102508.38;5254178;28;20025;-69
2022/01/19 07:20:39;;;;;;;66.75;32.90;;;;;;;0.96;100.00;102505.75;5250210;28;20025;-69
2022/01/19 07:23:10;;;;;;;72.80;37.75;;;;;;;0.94;100.00;102501.38;5250022;28;20029;-69
2022/01/19 07:25:42;;;;;;;64.75;32.08;;;;;;;0.97;100.00;102502.22;5251496;28;20482;-68
2022/01/19 07:28:13;;;;;;;67.28;36.45;;;;;;;1.01;100.00;102499.56;5257146;28;20029;-68
2022/01/19 07:30:45;;;;;;;61.03;32.80;;;;;;;0.98;100.00;102498.72;5251110;28;20068;-68
2022/01/19 07:33:16;;;;;;;57.42;29.90;;;;;;;1.10;100.00;102502.97;5249074;28;20029;-68
2022/01/19 07:35:51;;;;;;;60.95;30.00;;;;;;;1.08;100.00;102494.25;5252691;28;20034;-68
2022/01/19 07:38:26;;;;;;;59.90;29.05;;;;;;;1.09;100.00;102498.59;5243201;28;20025;-68
2022/01/19 07:40:57;;;;;;;58.63;28.77;;;;;;;1.12;100.00;102495.09;5243935;28;20032;-68
2022/01/19 07:43:29;;;;;;;57.72;31.48;;;;;;;1.11;100.00;102498.59;5242500;28;20485;-69
2022/01/19 07:46:00;;;;;;;59.25;29.60;;;;;;;1.12;100.00;102489.81;5243132;28;20625;-68
2022/01/19 07:48:31;;;;;;;57.50;29.55;;;;;;;1.10;100.00;102481.09;5242934;28;20025;-68
2022/01/19 07:51:03;;;;;;;57.50;29.05;;;;;;;1.16;100.00;102489.75;5242363;28;20799;-68
2022/01/19 07:53:35;;;;;;;55.70;29.10;;;;;;;1.12;100.00;102477.53;5240309;28;20033;-68
2022/01/19 07:56:06;;;;;;;59.17;30.42;;;;;;;1.21;100.00;102488.84;5245296;28;20108;-68
2022/01/19 07:58:37;;;;;;;55.80;29.10;;;;;;;1.18;100.00;102485.34;5242574;28;20527;-68
2022/01/19 08:01:09;;;;;;;54.65;28.27;;;;;;;1.25;100.00;102486.19;5245877;28;20378;-68
2022/01/19 08:03:40;;;;;;;54.15;28.13;;;;;;;1.30;100.00;102483.47;5244108;28;20033;-68
2022/01/19 08:06:11;;;;;;;58.25;29.38;;;;;;;1.33;100.00;102471.19;5242223;28;20032;-68
2022/01/19 08:08:43;;;;;;;55.90;29.23;;;;;;;1.34;100.00;102474.66;5243867;28;20021;-68
2022/01/19 08:11:14;;;;;;;53.70;28.20;;;;;;;1.34;100.00;102472.94;5244330;28;20506;-69
2022/01/19 08:13:46;;;;;;;55.90;29.17;;;;;;;1.34;100.00;102475.56;5245097;28;20379;-68
2022/01/19 08:16:17;;;;;;;51.92;27.75;;;;;;;1.43;100.00;102481.59;5251454;28;20421;-69
2022/01/19 08:18:48;;;;;;;55.55;28.83;;;;;;;1.38;100.00;102465.84;5252750;28;20450;-69
2022/01/19 08:21:20;;;;;;;57.38;30.70;;;;;;;1.41;100.00;102470.22;5249345;28;20032;-69
2022/01/19 08:23:51;;;;;;;54.65;29.45;;;;;;;1.44;100.00;102463.16;5245443;28;20114;-69
2022/01/19 08:26:22;;;;;;;51.15;28.35;;;;;;;1.47;100.00;102459.63;5243012;28;20017;-69
2022/01/19 08:28:53;;;;;;;51.63;26.77;;;;;;;1.49;100.00;102458.69;5243518;28;20437;-69
2022/01/19 08:31:25;;;;;;;56.03;29.55;;;;;;;1.45;100.00;102453.50;5250112;28;20101;-69
2022/01/19 08:33:56;;;;;;;49.42;27.60;;;;;;;1.52;100.00;102452.56;5248388;28;20049;-69
2022/01/19 08:36:28;;;;;;;55.33;27.48;;;;;;;1.50;100.00;102457.81;5250913;28;20573;-69
2022/01/19 08:39:00;;;;;;;51.85;28.63;;;;;;;1.51;100.00;102456.91;5252125;28;20040;-69
2022/01/19 08:41:31;;;;;;;53.65;28.58;;;;;;;1.50;100.00;102451.69;5254156;28;20024;-69
2022/01/19 08:44:03;;;;;;;50.10;28.13;;;;;;;1.52;100.00;102452.56;5251249;28;20025;-69
2022/01/19 08:46:37;;;;;;;52.13;27.48;;;;;;;1.53;100.00;102457.81;5252076;28;20044;-69
2022/01/19 08:49:08;;;;;;;52.88;27.98;;;;;;;1.61;100.00;102441.91;5251050;28;20447;-68
2022/01/19 08:51:39;;;;;;;52.67;29.30;;;;;;;1.62;100.00;102440.16;5250790;28;20119;-68
2022/01/19 08:54:11;;;;;;;51.25;27.17;;;;;;;1.60;100.00;102440.16;5249921;28;20036;-68
2022/01/19 08:56:42;;;;;;;51.20;27.40;;;;;;;1.65;100.00;102438.34;5253099;28;20025;-68
2022/01/19 08:59:14;;;;;;;50.38;27.63;;;;;;;1.66;100.00;102431.31;5248051;28;20487;-68
2022/01/19 09:01:45;;;;;;;48.83;26.67;;;;;;;1.73;100.00;102428.56;5248241;28;20025;-68
2022/01/19 09:04:17;;;;;;;50.92;26.73;;;;;;;1.77;100.00;102425.00;5241414;28;20071;-68
2022/01/19 09:06:48;;;;;;;49.90;26.70;;;;;;;1.77;100.00;102418.88;5250710;28;20082;-68
2022/01/19 09:09:20;;;;;;;55.05;27.33;;;;;;;1.78;100.00;102407.44;5257991;28;20072;-68
2022/01/19 09:11:51;;;;;;;50.42;26.45;;;;;;;1.79;100.00;102413.59;5256350;28;20056;-68
2022/01/19 09:14:22;;;;;;;47.33;26.40;;;;;;;1.80;100.00;102412.69;5252641;28;20422;-68
2022/01/19 09:16:54;;;;;;;44.17;25.13;;;;;;;1.92;100.00;102416.03;5255011;28;20494;-68
2022/01/19 09:19:25;;;;;;;47.33;26.05;;;;;;;1.91;100.00;102408.16;5254696;28;20029;-68
2022/01/19 09:21:56;;;;;;;47.25;26.75;;;;;;;1.92;100.00;102404.63;5255888;28;20029;-68
2022/01/19 09:24:28;;;;;;;45.50;25.55;;;;;;;1.92;100.00;102404.63;5254820;28;20694;-68
2022/01/19 09:27:00;;;;;;;46.60;25.45;;;;;;;1.91;100.00;102409.00;5251154;28;20499;-68
2022/01/19 09:29:31;;;;;;;48.72;24.98;;;;;;;1.95;100.00;102405.44;5252743;28;20028;-68
2022/01/19 09:32:07;;;;;;;46.58;25.33;;;;;;;2.03;100.00;102405.31;5253790;28;20064;-68
2022/01/19 09:34:42;;;;;;;45.95;25.17;;;;;;;1.98;100.00;102394.00;5250482;28;20031;-68
2022/01/19 09:37:16;;;;;;;43.88;24.75;;;;;;;2.04;100.00;102398.31;5252804;28;20029;-68
2022/01/19 09:39:47;;;;;;;46.20;24.58;;;;;;;2.02;100.00;102384.31;5252365;28;20025;-68
2022/01/19 09:42:18;;;;;;;41.72;25.52;;;;;;;2.00;100.00;102386.94;5251211;28;20025;-68
2022/01/19 09:44:52;;;;;;;43.53;24.70;;;;;;;2.04;100.00;102375.47;5253719;28;20039;-68
2022/01/19 09:47:24;;;;;;;43.10;24.48;;;;;;;2.06;100.00;102381.59;5256743;28;20029;-68
2022/01/19 09:49:55;;;;;;;44.10;24.50;;;;;;;2.08;100.00;102363.13;5257465;28;20035;-69
2022/01/19 09:52:27;;;;;;;43.15;24.27;;;;;;;2.08;100.00;102360.50;5256554;28;20032;-69
2022/01/19 09:54:58;;;;;;;42.55;24.45;;;;;;;2.12;100.00;102363.03;5256922;28;20029;-68
2022/01/19 09:57:33;;;;;;;41.03;24.38;;;;;;;2.18;100.00;102363.84;5257183;28;20031;-68
2022/01/19 10:00:05;;;;;;;40.00;24.27;;;;;;;2.15;100.00;102352.47;5251402;28;20154;-68
2022/01/19 10:02:36;;;;;;;39.67;23.63;;;;;;;2.20;100.00;102346.25;5252209;28;20043;-70
2022/01/19 10:05:09;;;;;;;41.15;23.88;;;;;;;2.22;100.00;102347.09;5255935;28;20123;-69
2022/01/19 10:07:40;;;;;;;41.72;23.80;;;;;;;2.28;100.00;102349.63;5256685;28;20021;-69
2022/01/19 10:10:11;;;;;;;44.88;24.98;;;;;;;2.28;100.00;102349.63;5254739;28;20048;-69
2022/01/19 10:18:29;;;;;;;41.22;23.48;;;;;;;2.35;100.00;102335.44;5253335;28;20044;-69
2022/01/19 10:21:13;;;;;;;43.60;24.17;;;;;;;2.39;100.00;102341.53;5252685;28;20666;-70
2022/01/19 10:23:50;;;;;;;44.00;25.02;;;;;;;2.42;100.00;102342.34;5254216;28;20040;-69
2022/01/19 10:26:27;;;;;;;42.72;25.23;;;;;;;2.45;100.00;102336.16;5255109;28;20040;-69
2022/01/19 10:29:05;;;;;;;46.85;25.58;;;;;;;2.53;100.00;102337.75;5250593;28;20028;-70
2022/01/19 10:31:40;;;;;;;43.00;25.85;;;;;;;2.55;100.00;102343.88;5251900;28;20115;-70
2022/01/19 10:34:16;;;;;;;42.00;25.00;;;;;;;2.64;100.00;102332.25;5253848;28;20036;-70
2022/01/19 10:36:51;;;;;;;42.65;23.92;;;;;;;2.63;100.00;102333.19;5253094;28;20119;-70
2022/01/19 10:39:24;;;;;;;44.30;24.80;;;;;;;2.66;100.00;102326.97;5252354;28;20111;-70
2022/01/19 10:42:15;;;;;;;40.13;23.00;;;;;;;2.74;100.00;102309.22;5254213;28;20337;-70
2022/01/19 10:44:53;;;;;;;41.40;23.60;;;;;;;2.73;100.00;102294.34;5252541;28;20326;-70
2022/01/19 10:47:41;;;;;;;40.13;23.05;;;;;;;2.79;100.00;102291.56;5251460;28;20039;-70
2022/01/19 10:50:25;;;;;;;39.22;22.73;;;;;;;2.78;100.00;102291.59;5253070;28;20033;-70
2022/01/19 10:53:01;;;;;;;37.42;22.50;;;;;;;2.81;100.00;102295.03;5253260;28;20025;-69
2022/01/19 10:55:41;;;;;;;34.28;22.38;;;;;;;2.85;100.00;102307.25;5251342;28;20448;-69
2022/01/19 10:58:15;;;;;;;36.75;23.05;;;;;;;2.83;100.00;102308.19;5249821;28;20040;-69
2022/01/19 11:00:51;;;;;;;36.97;22.52;;;;;;;2.83;100.00;102306.41;5251493;28;20029;-69
2022/01/19 11:03:28;;;;;;;38.67;23.27;;;;;;;2.82;100.00;102294.16;5253143;28;20029;-69
2022/01/19 11:06:01;;;;;;;38.33;23.10;;;;;;;2.86;100.00;102276.50;5252058;28;20028;-70
2022/01/19 11:08:35;;;;;;;40.00;22.88;;;;;;;2.87;100.00;102275.59;5251798;28;20020;-70
2022/01/19 11:11:08;;;;;;;38.38;22.42;;;;;;;2.87;100.00;102272.94;5254648;28;20202;-70
2022/01/19 11:13:42;;;;;;;38.55;23.67;;;;;;;2.88;100.00;102272.06;5253908;28;20021;-70
2022/01/19 11:16:13;;;;;;;41.58;24.20;;;;;;;2.89;100.00;102264.09;5251255;28;20029;-70
2022/01/19 11:18:44;;;;;;;41.30;23.83;;;;;;;2.92;100.00;102264.03;5252755;28;20032;-70
2022/01/19 11:21:22;;;;;;;40.28;23.83;;;;;;;2.92;100.00;102252.63;5250638;28;20035;-70
2022/01/19 11:24:20;;;;;;;41.55;23.58;;;;;;;2.94;100.00;102243.78;5253078;28;20073;-70
2022/01/19 11:26:55;;;;;;;40.55;23.73;;;;;;;2.91;100.00;102241.19;5253309;28;20068;-70
2022/01/19 11:29:29;;;;;;;41.92;23.08;;;;;;;3.00;100.00;102236.66;5250270;28;20422;-69
2022/01/19 11:32:13;;;;;;;37.97;23.88;;;;;;;2.96;100.00;102237.63;5252181;28;20029;-70
2022/01/19 11:34:53;;;;;;;41.95;24.77;;;;;;;2.94;100.00;102230.59;5250324;28;20029;-69
2022/01/19 11:37:38;;;;;;;39.30;24.20;;;;;;;2.97;100.00;102220.88;5253274;28;20032;-69
2022/01/19 11:40:20;;;;;;;39.78;23.90;;;;;;;2.99;100.00;102206.75;5254078;28;20037;-69
2022/01/19 11:43:21;;;;;;;44.90;24.55;;;;;;;3.02;100.00;102214.63;5252734;28;20036;-69
2022/01/19 11:45:53;;;;;;;45.78;25.80;;;;;;;3.03;100.00;102204.94;5250062;28;21000;-69
2022/01/19 11:48:28;;;;;;;46.03;25.35;;;;;;;3.03;100.00;102202.28;5253623;28;20398;-69
2022/01/19 11:51:38;;;;;;;42.70;25.55;;;;;;;3.11;100.00;102192.44;5254359;28;20094;-69
2022/01/19 11:54:17;;;;;;;42.20;25.23;;;;;;;3.06;100.00;102189.91;5252545;28;20029;-69
2022/01/19 11:56:57;;;;;;;40.30;24.73;;;;;;;3.08;100.00;102185.47;5250947;28;20025;-69
2022/01/19 11:59:38;;;;;;;47.05;25.48;;;;;;;3.08;100.00;102184.59;5252502;28;20561;-69
2022/01/19 12:02:21;;;;;;;42.00;25.38;;;;;;;3.10;100.00;102172.25;5252861;28;20036;-69
2022/01/19 12:05:00;;;;;;;40.97;25.27;;;;;;;3.08;100.00;102174.91;5249163;28;20033;-69
2022/01/19 12:07:42;;;;;;;44.88;26.70;;;;;;;3.05;100.00;102168.84;5252850;28;20102;-69
2022/01/19 12:10:39;;;;;;;46.17;27.30;;;;;;;3.13;100.00;102167.75;5250037;28;20056;-69
2022/01/19 12:16:25;;;;;;;45.13;28.67;;;;;;;3.12;100.00;102152.84;5253978;28;20032;-69
2022/01/19 12:19:05;;;;;;;47.10;28.50;;;;;;;3.20;100.00;102155.28;5252021;28;20183;-69
2022/01/19 12:21:43;;;;;;;46.35;28.60;;;;;;;3.20;100.00;102139.47;5254727;28;20466;-69
2022/01/19 12:24:24;;;;;;;51.15;30.17;;;;;;;3.22;100.00;102132.41;5253253;28;20036;-69
2022/01/19 12:27:06;;;;;;;50.47;30.40;;;;;;;3.29;100.00;102120.78;5252436;28;20032;-69
2022/01/19 12:29:39;;;;;;;52.67;30.17;;;;;;;3.34;100.00;102116.25;5251337;28;20513;-70
2022/01/19 12:32:17;;;;;;;52.28;30.90;;;;;;;3.40;100.00;102117.00;5252960;28;20079;-70
2022/01/19 12:34:52;;;;;;;55.97;31.70;;;;;;;3.40;100.00;102109.97;5252531;28;20040;-70
2022/01/19 12:37:26;;;;;;;48.83;30.90;;;;;;;3.42;100.00;102125.75;5252039;28;20040;-70
2022/01/19 12:40:00;;;;;;;51.38;30.15;;;;;;;3.44;100.00;102116.03;5250692;28;20036;-70
2022/01/19 12:42:55;;;;;;;47.75;29.60;;;;;;;3.52;100.00;102124.59;5253612;28;20048;-70
2022/01/19 12:45:45;;;;;;;51.63;31.60;;;;;;;3.53;100.00;102108.72;5248294;28;20035;-69
2022/01/19 12:48:38;;;;;;;51.00;30.30;;;;;;;3.60;100.00;102098.00;5253066;28;20502;-70
2022/01/19 12:51:34;;;;;;;52.20;30.27;;;;;;;3.64;100.00;102082.03;5252438;28;20486;-70
2022/01/19 12:54:06;;;;;;;51.03;29.92;;;;;;;3.68;100.00;102086.34;5252036;28;20239;-69
2022/01/19 12:56:38;;;;;;;49.60;29.15;;;;;;;3.69;100.00;102074.00;5253562;28;20086;-70
2022/01/19 12:59:09;;;;;;;51.22;30.05;;;;;;;3.73;100.00;102076.50;5252002;28;20609;-70
2022/01/19 13:01:43;;;;;;;53.08;30.92;;;;;;;3.77;100.00;102072.00;5252611;28;20502;-70
2022/01/19 13:04:29;;;;;;;48.85;30.83;;;;;;;3.86;100.00;102077.03;5253158;28;20048;-70